sensor_id;sensor_type;location;lat;lon;timestamp;temperature;humidity
65472;DHT22;52068;50.710;14.492;2023-03-01T00:02:02;24.46;33.98
65472;DHT22;52068;50.710;14.492;2023-03-01T00:04:27;24.30;34.19
65472;DHT22;52068;50.710;14.492;2023-03-01T00:06:52;24.12;34.63
65472;DHT22;52068;50.710;14.492;2023-03-01T00:09:18;23.95;34.92
65472;DHT22;52068;50.710;14.492;2023-03-01T00:11:43;23.76;35.17
65472;DHT22;52068;50.710;14.492;2023-03-01T00:14:08;23.61;35.30
65472;DHT22;52068;50.710;14.492;2023-03-01T00:16:35;23.48;35.61
65472;DHT22;52068;50.710;14.492;2023-03-01T00:19:01;23.33;35.85
65472;DHT22;52068;50.710;14.492;2023-03-01T00:21:26;23.20;36.07
65472;DHT22;52068;50.710;14.492;2023-03-01T00:23:52;23.30;35.98
65472;DHT22;52068;50.710;14.492;2023-03-01T00:26:19;23.62;35.16
65472;DHT22;52068;50.710;14.492;2023-03-01T00:28:45;24.03;34.75
65472;DHT22;52068;50.710;14.492;2023-03-01T00:31:12;24.47;34.20
65472;DHT22;52068;50.710;14.492;2023-03-01T00:33:38;24.78;33.80
65472;DHT22;52068;50.710;14.492;2023-03-01T00:36:03;24.99;33.27
65472;DHT22;52068;50.710;14.492;2023-03-01T00:38:29;25.08;33.10
65472;DHT22;52068;50.710;14.492;2023-03-01T00:40:54;25.05;32.92
65472;DHT22;52068;50.710;14.492;2023-03-01T00:43:20;24.91;32.97
65472;DHT22;52068;50.710;14.492;2023-03-01T00:45:45;24.78;33.19
65472;DHT22;52068;50.710;14.492;2023-03-01T00:48:10;24.59;33.71
65472;DHT22;52068;50.710;14.492;2023-03-01T00:50:35;24.41;33.97
65472;DHT22;52068;50.710;14.492;2023-03-01T00:53:01;24.16;34.57
65472;DHT22;52068;50.710;14.492;2023-03-01T00:55:26;24.02;34.78
65472;DHT22;52068;50.710;14.492;2023-03-01T00:57:51;23.88;35.02
65472;DHT22;52068;50.710;14.492;2023-03-01T01:00:17;23.72;35.08
65472;DHT22;52068;50.710;14.492;2023-03-01T01:02:42;23.55;35.55
65472;DHT22;52068;50.710;14.492;2023-03-01T01:05:08;23.43;35.69
65472;DHT22;52068;50.710;14.492;2023-03-01T01:07:33;23.23;36.00
65472;DHT22;52068;50.710;14.492;2023-03-01T01:09:58;23.08;36.25
65472;DHT22;52068;50.710;14.492;2023-03-01T01:12:24;23.04;36.24
65472;DHT22;52068;50.710;14.492;2023-03-01T01:14:49;23.18;36.25
65472;DHT22;52068;50.710;14.492;2023-03-01T01:17:14;23.65;35.36
65472;DHT22;52068;50.710;14.492;2023-03-01T01:19:39;24.22;34.82
65472;DHT22;52068;50.710;14.492;2023-03-01T01:22:05;24.73;34.10
65472;DHT22;52068;50.710;14.492;2023-03-01T01:24:30;25.08;33.58
65472;DHT22;52068;50.710;14.492;2023-03-01T01:26:55;25.26;32.97
65472;DHT22;52068;50.710;14.492;2023-03-01T01:29:21;25.34;32.69
65472;DHT22;52068;50.710;14.492;2023-03-01T01:31:46;25.28;32.53
65472;DHT22;52068;50.710;14.492;2023-03-01T01:34:16;25.11;32.96
65472;DHT22;52068;50.710;14.492;2023-03-01T01:36:42;24.92;33.46
65472;DHT22;52068;50.710;14.492;2023-03-01T01:39:07;24.74;33.72
65472;DHT22;52068;50.710;14.492;2023-03-01T01:41:32;24.50;34.01
65472;DHT22;52068;50.710;14.492;2023-03-01T01:49:07;23.90;35.22
65472;DHT22;52068;50.710;14.492;2023-03-01T01:51:38;23.72;35.38
65472;DHT22;52068;50.710;14.492;2023-03-01T01:54:12;23.57;35.76
65472;DHT22;52068;50.710;14.492;2023-03-01T01:56:39;23.41;35.91
65472;DHT22;52068;50.710;14.492;2023-03-01T01:59:07;23.25;36.31
65472;DHT22;52068;50.710;14.492;2023-03-01T02:01:33;23.13;36.43
65472;DHT22;52068;50.710;14.492;2023-03-01T02:03:59;23.00;36.62
65472;DHT22;52068;50.710;14.492;2023-03-01T02:06:29;23.07;36.92
65472;DHT22;52068;50.710;14.492;2023-03-01T02:09:00;23.41;36.04
65472;DHT22;52068;50.710;14.492;2023-03-01T02:11:27;23.90;35.44
65472;DHT22;52068;50.710;14.492;2023-03-01T02:13:52;24.36;34.85
65472;DHT22;52068;50.710;14.492;2023-03-01T02:16:19;24.73;34.15
65472;DHT22;52068;50.710;14.492;2023-03-01T02:18:44;24.88;33.86
65472;DHT22;52068;50.710;14.492;2023-03-01T02:23:35;24.90;33.78
65472;DHT22;52068;50.710;14.492;2023-03-01T02:26:01;24.75;33.85
65472;DHT22;52068;50.710;14.492;2023-03-01T02:28:35;24.57;34.37
65472;DHT22;52068;50.710;14.492;2023-03-01T02:31:01;24.37;34.66
65472;DHT22;52068;50.710;14.492;2023-03-01T02:33:46;24.17;35.07
65472;DHT22;52068;50.710;14.492;2023-03-01T02:36:21;24.01;35.25
65472;DHT22;52068;50.710;14.492;2023-03-01T02:38:48;23.84;35.53
65472;DHT22;52068;50.710;14.492;2023-03-01T02:41:15;23.69;35.42
65472;DHT22;52068;50.710;14.492;2023-03-01T02:43:41;23.51;35.64
65472;DHT22;52068;50.710;14.492;2023-03-01T02:46:14;23.33;35.98
65472;DHT22;52068;50.710;14.492;2023-03-01T02:48:40;23.13;36.30
65472;DHT22;52068;50.710;14.492;2023-03-01T02:56:17;22.86;36.97
65472;DHT22;52068;50.710;14.492;2023-03-01T02:58:43;23.07;36.71
65472;DHT22;52068;50.710;14.492;2023-03-01T03:01:15;23.51;35.86
65472;DHT22;52068;50.710;14.492;2023-03-01T03:03:41;24.01;35.19
65472;DHT22;52068;50.710;14.492;2023-03-01T03:06:07;24.36;34.50
65472;DHT22;52068;50.710;14.492;2023-03-01T03:08:32;24.65;33.97
65472;DHT22;52068;50.710;14.492;2023-03-01T03:10:57;24.78;33.70
65472;DHT22;52068;50.710;14.492;2023-03-01T03:13:23;24.80;33.57
65472;DHT22;52068;50.710;14.492;2023-03-01T03:15:53;24.67;33.66
65472;DHT22;52068;50.710;14.492;2023-03-01T03:18:18;24.52;34.12
65472;DHT22;52068;50.710;14.492;2023-03-01T03:20:44;24.34;34.47
65472;DHT22;52068;50.710;14.492;2023-03-01T03:23:09;24.16;34.76
65472;DHT22;52068;50.710;14.492;2023-03-01T03:25:35;23.98;34.91
65472;DHT22;52068;50.710;14.492;2023-03-01T03:28:03;23.79;35.16
65472;DHT22;52068;50.710;14.492;2023-03-01T03:30:35;23.62;35.57
65472;DHT22;52068;50.710;14.492;2023-03-01T03:33:00;23.52;35.27
65472;DHT22;52068;50.710;14.492;2023-03-01T03:35:27;23.31;36.13
65472;DHT22;52068;50.710;14.492;2023-03-01T03:37:55;23.15;36.25
65472;DHT22;52068;50.710;14.492;2023-03-01T03:40:35;23.02;36.56
65472;DHT22;52068;50.710;14.492;2023-03-01T03:43:01;22.87;36.62
65472;DHT22;52068;50.710;14.492;2023-03-01T03:45:27;22.77;37.15
65472;DHT22;52068;50.710;14.492;2023-03-01T03:47:52;22.86;36.91
65472;DHT22;52068;50.710;14.492;2023-03-01T03:50:17;23.14;36.61
65472;DHT22;52068;50.710;14.492;2023-03-01T03:52:43;23.55;35.77
65472;DHT22;52068;50.710;14.492;2023-03-01T03:55:09;23.98;35.32
65472;DHT22;52068;50.710;14.492;2023-03-01T03:57:35;24.30;34.57
65472;DHT22;52068;50.710;14.492;2023-03-01T04:00:01;24.54;34.23
65472;DHT22;52068;50.710;14.492;2023-03-01T04:02:29;24.70;33.90
65472;DHT22;52068;50.710;14.492;2023-03-01T04:04:55;24.65;33.73
65472;DHT22;52068;50.710;14.492;2023-03-01T04:07:20;24.53;34.10
65472;DHT22;52068;50.710;14.492;2023-03-01T04:09:47;24.37;34.25
65472;DHT22;52068;50.710;14.492;2023-03-01T04:12:12;24.20;34.64
65472;DHT22;52068;50.710;14.492;2023-03-01T04:14:38;24.02;35.10
65472;DHT22;52068;50.710;14.492;2023-03-01T04:17:03;23.86;35.40
65472;DHT22;52068;50.710;14.492;2023-03-01T04:19:31;23.71;35.54
65472;DHT22;52068;50.710;14.492;2023-03-01T04:22:01;23.52;35.77
65472;DHT22;52068;50.710;14.492;2023-03-01T04:24:32;23.37;35.67
65472;DHT22;52068;50.710;14.492;2023-03-01T04:26:57;23.20;36.14
65472;DHT22;52068;50.710;14.492;2023-03-01T04:29:23;23.03;36.44
65472;DHT22;52068;50.710;14.492;2023-03-01T04:31:48;22.92;36.72
65472;DHT22;52068;50.710;14.492;2023-03-01T04:34:14;22.80;36.69
65472;DHT22;52068;50.710;14.492;2023-03-01T04:36:39;22.96;36.56
65472;DHT22;52068;50.710;14.492;2023-03-01T04:39:04;23.38;35.91
65472;DHT22;52068;50.710;14.492;2023-03-01T04:41:37;23.98;35.22
65472;DHT22;52068;50.710;14.492;2023-03-01T04:44:03;24.65;34.40
65472;DHT22;52068;50.710;14.492;2023-03-01T04:46:29;25.10;33.58
65472;DHT22;52068;50.710;14.492;2023-03-01T04:48:54;25.47;33.14
65472;DHT22;52068;50.710;14.492;2023-03-01T04:51:20;25.59;32.53
65472;DHT22;52068;50.710;14.492;2023-03-01T04:53:45;25.66;32.40
65472;DHT22;52068;50.710;14.492;2023-03-01T04:56:10;25.63;32.40
65472;DHT22;52068;50.710;14.492;2023-03-01T04:58:36;25.46;32.44
65472;DHT22;52068;50.710;14.492;2023-03-01T05:01:01;25.35;32.32
65472;DHT22;52068;50.710;14.492;2023-03-01T05:03:40;25.10;32.55
65472;DHT22;52068;50.710;14.492;2023-03-01T05:06:06;24.87;33.01
65472;DHT22;52068;50.710;14.492;2023-03-01T05:08:31;24.63;33.63
65472;DHT22;52068;50.710;14.492;2023-03-01T05:10:59;24.37;33.83
65472;DHT22;52068;50.710;14.492;2023-03-01T05:13:24;24.15;34.06
65472;DHT22;52068;50.710;14.492;2023-03-01T05:15:57;23.95;33.63
65472;DHT22;52068;50.710;14.492;2023-03-01T05:18:23;23.75;34.73
65472;DHT22;52068;50.710;14.492;2023-03-01T05:20:50;23.55;34.65
65472;DHT22;52068;50.710;14.492;2023-03-01T05:23:17;23.44;35.14
65472;DHT22;52068;50.710;14.492;2023-03-01T05:25:43;23.54;34.85
65472;DHT22;52068;50.710;14.492;2023-03-01T05:28:10;23.95;34.64
65472;DHT22;52068;50.710;14.492;2023-03-01T05:30:36;24.50;34.13
65472;DHT22;52068;50.710;14.492;2023-03-01T05:33:01;24.90;33.61
65472;DHT22;52068;50.710;14.492;2023-03-01T05:35:26;25.32;32.93
65472;DHT22;52068;50.710;14.492;2023-03-01T05:37:52;25.59;32.54
65472;DHT22;52068;50.710;14.492;2023-03-01T05:40:18;25.69;31.91
65472;DHT22;52068;50.710;14.492;2023-03-01T05:42:45;25.66;32.63
65472;DHT22;52068;50.710;14.492;2023-03-01T05:45:11;25.55;32.20
65472;DHT22;52068;50.710;14.492;2023-03-01T05:47:37;25.42;31.75
65472;DHT22;52068;50.710;14.492;2023-03-01T05:50:03;25.24;32.07
65472;DHT22;52068;50.710;14.492;2023-03-01T05:52:28;25.01;31.90
65472;DHT22;52068;50.710;14.492;2023-03-01T05:54:53;24.83;31.86
65472;DHT22;52068;50.710;14.492;2023-03-01T05:57:18;24.61;32.47
65472;DHT22;52068;50.710;14.492;2023-03-01T05:59:45;24.36;33.26
65472;DHT22;52068;50.710;14.492;2023-03-01T06:02:10;24.13;32.89
65472;DHT22;52068;50.710;14.492;2023-03-01T06:04:35;23.90;33.72
65472;DHT22;52068;50.710;14.492;2023-03-01T06:07:01;23.71;33.86
65472;DHT22;52068;50.710;14.492;2023-03-01T06:09:26;23.52;34.17
65472;DHT22;52068;50.710;14.492;2023-03-01T06:11:51;23.35;34.61
65472;DHT22;52068;50.710;14.492;2023-03-01T06:14:17;23.18;34.73
65472;DHT22;52068;50.710;14.492;2023-03-01T06:16:42;23.07;34.93
65472;DHT22;52068;50.710;14.492;2023-03-01T06:19:07;23.02;35.03
65472;DHT22;52068;50.710;14.492;2023-03-01T06:21:32;23.25;35.06
65472;DHT22;52068;50.710;14.492;2023-03-01T06:23:58;23.68;34.13
65472;DHT22;52068;50.710;14.492;2023-03-01T06:26:23;24.20;33.49
65472;DHT22;52068;50.710;14.492;2023-03-01T06:28:48;24.70;32.71
65472;DHT22;52068;50.710;14.492;2023-03-01T06:31:13;25.05;32.27
65472;DHT22;52068;50.710;14.492;2023-03-01T06:33:39;25.18;31.79
65472;DHT22;52068;50.710;14.492;2023-03-01T06:36:04;25.19;31.84
65472;DHT22;52068;50.710;14.492;2023-03-01T06:38:29;25.18;31.79
65472;DHT22;52068;50.710;14.492;2023-03-01T06:40:55;25.07;32.49
65472;DHT22;52068;50.710;14.492;2023-03-01T06:43:21;24.96;33.04
65472;DHT22;52068;50.710;14.492;2023-03-01T06:45:47;24.81;33.33
65472;DHT22;52068;50.710;14.492;2023-03-01T06:48:12;24.65;33.09
65472;DHT22;52068;50.710;14.492;2023-03-01T06:50:37;24.50;33.16
65472;DHT22;52068;50.710;14.492;2023-03-01T06:53:03;24.30;33.45
65472;DHT22;52068;50.710;14.492;2023-03-01T06:55:29;24.10;33.78
65472;DHT22;52068;50.710;14.492;2023-03-01T06:57:57;23.93;34.04
65472;DHT22;52068;50.710;14.492;2023-03-01T07:00:23;23.78;34.21
65472;DHT22;52068;50.710;14.492;2023-03-01T07:02:49;23.58;34.59
65472;DHT22;52068;50.710;14.492;2023-03-01T07:05:14;23.38;34.82
65472;DHT22;52068;50.710;14.492;2023-03-01T07:07:40;23.28;34.90
65472;DHT22;52068;50.710;14.492;2023-03-01T07:10:05;23.35;35.13
65472;DHT22;52068;50.710;14.492;2023-03-01T07:12:30;23.74;34.08
65472;DHT22;52068;50.710;14.492;2023-03-01T07:14:56;24.29;33.36
65472;DHT22;52068;50.710;14.492;2023-03-01T07:17:21;24.94;32.43
65472;DHT22;52068;50.710;14.492;2023-03-01T07:19:46;25.38;31.75
65472;DHT22;52068;50.710;14.492;2023-03-01T07:22:12;25.67;31.18
65472;DHT22;52068;50.710;14.492;2023-03-01T07:24:37;25.80;30.74
65472;DHT22;52068;50.710;14.492;2023-03-01T07:27:02;25.84;30.63
65472;DHT22;52068;50.710;14.492;2023-03-01T07:29:27;25.80;29.84
65472;DHT22;52068;50.710;14.492;2023-03-01T07:31:53;25.67;30.33
65472;DHT22;52068;50.710;14.492;2023-03-01T07:34:19;25.52;30.59
65472;DHT22;52068;50.710;14.492;2023-03-01T07:36:44;25.26;30.80
65472;DHT22;52068;50.710;14.492;2023-03-01T07:39:10;25.03;31.12
65472;DHT22;52068;50.710;14.492;2023-03-01T07:41:36;24.75;31.39
65472;DHT22;52068;50.710;14.492;2023-03-01T07:44:01;24.52;32.04
65472;DHT22;52068;50.710;14.492;2023-03-01T07:46:26;24.27;32.40
65472;DHT22;52068;50.710;14.492;2023-03-01T07:48:51;24.05;33.17
65472;DHT22;52068;50.710;14.492;2023-03-01T07:51:17;23.84;33.60
65472;DHT22;52068;50.710;14.492;2023-03-01T07:53:45;23.64;34.03
65472;DHT22;52068;50.710;14.492;2023-03-01T07:56:11;23.44;34.33
65472;DHT22;52068;50.710;14.492;2023-03-01T07:58:38;23.27;34.21
65472;DHT22;52068;50.710;14.492;2023-03-01T08:01:04;23.20;34.55
65472;DHT22;52068;50.710;14.492;2023-03-01T08:03:30;23.41;34.16
65472;DHT22;52068;50.710;14.492;2023-03-01T08:05:55;23.86;33.47
65472;DHT22;52068;50.710;14.492;2023-03-01T08:08:20;24.33;32.92
65472;DHT22;52068;50.710;14.492;2023-03-01T08:10:45;24.87;32.20
65472;DHT22;52068;50.710;14.492;2023-03-01T08:13:11;25.19;31.67
65472;DHT22;52068;50.710;14.492;2023-03-01T08:15:36;25.34;31.67
65472;DHT22;52068;50.710;14.492;2023-03-01T08:18:01;25.41;31.57
65472;DHT22;52068;50.710;14.492;2023-03-01T08:20:27;25.34;31.43
65472;DHT22;52068;50.710;14.492;2023-03-01T08:22:52;25.31;31.03
65472;DHT22;52068;50.710;14.492;2023-03-01T08:25:17;25.18;31.04
65472;DHT22;52068;50.710;14.492;2023-03-01T08:27:42;24.98;31.21
65472;DHT22;52068;50.710;14.492;2023-03-01T08:30:08;24.84;31.12
65472;DHT22;52068;50.710;14.492;2023-03-01T08:32:37;24.61;31.50
65472;DHT22;52068;50.710;14.492;2023-03-01T08:35:02;24.40;31.86
65472;DHT22;52068;50.710;14.492;2023-03-01T08:37:28;24.19;32.56
65472;DHT22;52068;50.710;14.492;2023-03-01T08:39:56;23.98;32.62
65472;DHT22;52068;50.710;14.492;2023-03-01T08:42:21;23.78;32.77
65472;DHT22;52068;50.710;14.492;2023-03-01T08:44:46;23.62;33.12
65472;DHT22;52068;50.710;14.492;2023-03-01T08:47:11;23.47;33.55
65472;DHT22;52068;50.710;14.492;2023-03-01T08:49:37;23.28;34.11
65472;DHT22;52068;50.710;14.492;2023-03-01T08:52:02;23.23;34.37
65472;DHT22;52068;50.710;14.492;2023-03-01T08:54:27;23.35;34.30
65472;DHT22;52068;50.710;14.492;2023-03-01T08:56:53;23.69;33.73
65472;DHT22;52068;50.710;14.492;2023-03-01T08:59:19;24.17;32.97
65472;DHT22;52068;50.710;14.492;2023-03-01T09:01:44;24.61;32.38
65472;DHT22;52068;50.710;14.492;2023-03-01T09:04:10;24.91;32.03
65472;DHT22;52068;50.710;14.492;2023-03-01T09:06:35;25.10;31.88
65472;DHT22;52068;50.710;14.492;2023-03-01T09:09:01;25.16;31.53
65472;DHT22;52068;50.710;14.492;2023-03-01T09:11:27;25.15;31.45
65472;DHT22;52068;50.710;14.492;2023-03-01T09:13:52;25.04;31.51
65472;DHT22;52068;50.710;14.492;2023-03-01T09:16:18;24.92;31.60
65472;DHT22;52068;50.710;14.492;2023-03-01T09:18:44;24.77;31.93
65472;DHT22;52068;50.710;14.492;2023-03-01T09:21:12;24.56;32.27
65472;DHT22;52068;50.710;14.492;2023-03-01T09:23:38;24.39;31.95
65472;DHT22;52068;50.710;14.492;2023-03-01T09:26:22;24.23;31.81
65472;DHT22;52068;50.710;14.492;2023-03-01T09:28:48;24.05;32.38
65472;DHT22;52068;50.710;14.492;2023-03-01T09:31:14;23.85;33.59
65472;DHT22;52068;50.710;14.492;2023-03-01T09:33:40;23.69;33.28
65472;DHT22;52068;50.710;14.492;2023-03-01T09:36:07;23.54;33.45
65472;DHT22;52068;50.710;14.492;2023-03-01T09:38:32;23.40;33.88
65472;DHT22;52068;50.710;14.492;2023-03-01T09:40:58;23.33;34.24
65472;DHT22;52068;50.710;14.492;2023-03-01T09:46:04;23.86;33.97
65472;DHT22;52068;50.710;14.492;2023-03-01T09:48:33;24.37;33.29
65472;DHT22;52068;50.710;14.492;2023-03-01T09:51:02;24.85;32.32
65472;DHT22;52068;50.710;14.492;2023-03-01T09:53:32;25.21;32.04
65472;DHT22;52068;50.710;14.492;2023-03-01T09:56:12;25.52;31.34
65472;DHT22;52068;50.710;14.492;2023-03-01T09:58:50;25.66;30.92
65472;DHT22;52068;50.710;14.492;2023-03-01T10:06:25;25.39;31.16
65472;DHT22;52068;50.710;14.492;2023-03-01T10:08:54;25.24;31.25
65472;DHT22;52068;50.710;14.492;2023-03-01T10:11:26;25.04;31.86
65472;DHT22;52068;50.710;14.492;2023-03-01T10:13:54;24.85;31.57
65472;DHT22;52068;50.710;14.492;2023-03-01T10:16:21;24.63;32.26
65472;DHT22;52068;50.710;14.492;2023-03-01T10:18:51;24.39;32.87
65472;DHT22;52068;50.710;14.492;2023-03-01T10:21:19;24.22;33.61
65472;DHT22;52068;50.710;14.492;2023-03-01T10:23:44;24.02;33.86
65472;DHT22;52068;50.710;14.492;2023-03-01T10:28:39;23.74;34.58
65472;DHT22;52068;50.710;14.492;2023-03-01T10:31:18;23.86;34.48
65472;DHT22;52068;50.710;14.492;2023-03-01T10:33:44;24.37;34.14
65472;DHT22;52068;50.710;14.492;2023-03-01T10:36:09;25.07;33.09
65472;DHT22;52068;50.710;14.492;2023-03-01T10:41:33;26.67;30.62
65472;DHT22;52068;50.710;14.492;2023-03-01T10:43:58;27.20;29.79
65472;DHT22;52068;50.710;14.492;2023-03-01T10:46:29;27.47;29.33
65472;DHT22;52068;50.710;14.492;2023-03-01T10:51:42;27.49;29.33
65472;DHT22;52068;50.710;14.492;2023-03-01T10:56:46;27.06;29.83
65472;DHT22;52068;50.710;14.492;2023-03-01T10:59:19;26.76;30.22
65472;DHT22;52068;50.710;14.492;2023-03-01T11:01:46;26.45;30.70
65472;DHT22;52068;50.710;14.492;2023-03-01T11:04:25;26.16;31.13
65472;DHT22;52068;50.710;14.492;2023-03-01T11:06:57;25.87;31.51
65472;DHT22;52068;50.710;14.492;2023-03-01T11:09:23;25.59;31.94
65472;DHT22;52068;50.710;14.492;2023-03-01T11:11:53;25.36;32.31
65472;DHT22;52068;50.710;14.492;2023-03-01T11:14:20;25.14;32.52
65472;DHT22;52068;50.710;14.492;2023-03-01T11:16:48;24.90;32.91
65472;DHT22;52068;50.710;14.492;2023-03-01T11:19:18;24.70;33.37
65472;DHT22;52068;50.710;14.492;2023-03-01T11:21:52;24.52;33.66
65472;DHT22;52068;50.710;14.492;2023-03-01T11:24:18;24.36;34.01
65472;DHT22;52068;50.710;14.492;2023-03-01T11:26:46;24.20;34.16
65472;DHT22;52068;50.710;14.492;2023-03-01T11:29:17;24.15;34.33
65472;DHT22;52068;50.710;14.492;2023-03-01T11:31:46;24.33;34.21
65472;DHT22;52068;50.710;14.492;2023-03-01T11:34:14;24.64;33.73
65472;DHT22;52068;50.710;14.492;2023-03-01T11:39:13;25.25;32.73
65472;DHT22;52068;50.710;14.492;2023-03-01T11:41:42;25.38;32.53
65472;DHT22;52068;50.710;14.492;2023-03-01T11:44:14;25.42;32.44
65472;DHT22;52068;50.710;14.492;2023-03-01T11:52:04;25.14;32.69
65472;DHT22;52068;50.710;14.492;2023-03-01T11:59:44;24.70;33.56
65472;DHT22;52068;50.710;14.492;2023-03-01T12:05:02;24.37;33.71
65472;DHT22;52068;50.710;14.492;2023-03-01T12:07:39;24.26;34.11
65472;DHT22;52068;50.710;14.492;2023-03-01T12:20:40;23.89;34.85
65472;DHT22;52068;50.710;14.492;2023-03-01T12:25:53;24.84;33.77
65472;DHT22;52068;50.710;14.492;2023-03-01T12:31:05;25.83;32.21
65472;DHT22;52068;50.710;14.492;2023-03-01T12:38:50;26.12;31.80
65472;DHT22;52068;50.710;14.492;2023-03-01T12:46:25;25.79;32.39
65472;DHT22;52068;50.710;14.492;2023-03-01T12:49:05;25.61;32.64
65472;DHT22;52068;50.710;14.492;2023-03-01T12:51:33;25.42;32.96
65472;DHT22;52068;50.710;14.492;2023-03-01T12:54:00;25.25;33.25
65472;DHT22;52068;50.710;14.492;2023-03-01T12:56:31;25.10;33.56
65472;DHT22;52068;50.710;14.492;2023-03-01T12:59:13;24.96;33.76
65472;DHT22;52068;50.710;14.492;2023-03-01T13:11:40;24.33;34.89
65472;DHT22;52068;50.710;14.492;2023-03-01T13:16:49;24.22;35.16
65472;DHT22;52068;50.710;14.492;2023-03-01T13:19:16;24.41;34.98
65472;DHT22;52068;50.710;14.492;2023-03-01T13:21:42;24.74;34.51
65472;DHT22;52068;50.710;14.492;2023-03-01T13:24:24;25.14;33.87
65472;DHT22;52068;50.710;14.492;2023-03-01T13:29:32;25.79;32.80
65472;DHT22;52068;50.710;14.492;2023-03-01T13:32:16;25.89;32.64
65472;DHT22;52068;50.710;14.492;2023-03-01T13:34:44;25.90;32.63
65472;DHT22;52068;50.710;14.492;2023-03-01T13:37:10;25.84;32.72
65472;DHT22;52068;50.710;14.492;2023-03-01T13:39:43;25.75;32.89
65472;DHT22;52068;50.710;14.492;2023-03-01T13:44:52;25.47;33.37
65472;DHT22;52068;50.710;14.492;2023-03-01T13:47:17;25.34;33.65
65472;DHT22;52068;50.710;14.492;2023-03-01T13:54:46;24.92;34.30
65472;DHT22;52068;50.710;14.492;2023-03-01T13:57:12;24.80;34.57
65472;DHT22;52068;50.710;14.492;2023-03-01T13:59:48;24.68;34.72
65472;DHT22;52068;50.710;14.492;2023-03-01T14:02:13;24.60;34.95
65472;DHT22;52068;50.710;14.492;2023-03-01T14:04:39;24.50;35.14
65472;DHT22;52068;50.710;14.492;2023-03-01T14:07:38;24.39;35.28
65472;DHT22;52068;50.710;14.492;2023-03-01T14:10:01;24.27;35.48
65472;DHT22;52068;50.710;14.492;2023-03-01T14:12:37;24.26;35.61
65472;DHT22;52068;50.710;14.492;2023-03-01T14:20:12;24.91;34.68
65472;DHT22;52068;50.710;14.492;2023-03-01T14:22:40;25.15;34.31
65472;DHT22;52068;50.710;14.492;2023-03-01T14:25:16;25.32;34.08
65472;DHT22;52068;50.710;14.492;2023-03-01T14:27:42;25.38;34.02
65472;DHT22;52068;50.710;14.492;2023-03-01T14:30:12;25.38;34.05
65472;DHT22;52068;50.710;14.492;2023-03-01T14:32:39;25.34;34.15
65472;DHT22;52068;50.710;14.492;2023-03-01T14:35:18;25.26;34.30
65472;DHT22;52068;50.710;14.492;2023-03-01T14:37:44;25.19;34.46
65472;DHT22;52068;50.710;14.492;2023-03-01T14:40:21;25.10;34.67
65472;DHT22;52068;50.710;14.492;2023-03-01T14:42:46;24.99;34.85
65472;DHT22;52068;50.710;14.492;2023-03-01T14:45:12;24.91;35.08
65472;DHT22;52068;50.710;14.492;2023-03-01T14:47:37;24.80;35.17
65472;DHT22;52068;50.710;14.492;2023-03-01T14:52:36;24.61;35.44
65472;DHT22;52068;50.710;14.492;2023-03-01T14:55:03;24.54;35.51
65472;DHT22;52068;50.710;14.492;2023-03-01T14:57:29;24.43;35.67
65472;DHT22;52068;50.710;14.492;2023-03-01T14:59:56;24.34;35.75
65472;DHT22;52068;50.710;14.492;2023-03-01T15:02:23;24.27;35.80
65472;DHT22;52068;50.710;14.492;2023-03-01T15:04:50;24.19;35.89
65472;DHT22;52068;50.710;14.492;2023-03-01T15:07:16;24.13;35.96
65472;DHT22;52068;50.710;14.492;2023-03-01T15:09:42;24.20;35.84
65472;DHT22;52068;50.710;14.492;2023-03-01T15:14:51;24.67;35.08
65472;DHT22;52068;50.710;14.492;2023-03-01T15:17:20;24.94;34.59
65472;DHT22;52068;50.710;14.492;2023-03-01T15:19:46;25.12;34.30
65472;DHT22;52068;50.710;14.492;2023-03-01T15:22:14;25.21;34.15
65472;DHT22;52068;50.710;14.492;2023-03-01T15:24:40;25.21;34.03
65472;DHT22;52068;50.710;14.492;2023-03-01T15:27:12;25.21;34.07
65472;DHT22;52068;50.710;14.492;2023-03-01T15:29:39;25.15;34.11
65472;DHT22;52068;50.710;14.492;2023-03-01T15:32:20;25.07;34.22
65472;DHT22;52068;50.710;14.492;2023-03-01T15:34:47;24.99;34.37
65472;DHT22;52068;50.710;14.492;2023-03-01T15:39:57;24.80;34.65
65472;DHT22;52068;50.710;14.492;2023-03-01T15:47:39;24.47;35.11
65472;DHT22;52068;50.710;14.492;2023-03-01T15:50:05;24.34;35.30
65472;DHT22;52068;50.710;14.492;2023-03-01T15:52:40;24.27;35.43
65472;DHT22;52068;50.710;14.492;2023-03-01T15:55:14;24.19;35.52
65472;DHT22;52068;50.710;14.492;2023-03-01T15:57:39;24.10;35.64
65472;DHT22;52068;50.710;14.492;2023-03-01T16:00:05;24.12;35.64
65472;DHT22;52068;50.710;14.492;2023-03-01T16:02:36;24.36;35.31
65472;DHT22;52068;50.710;14.492;2023-03-01T16:05:02;24.68;34.67
65472;DHT22;52068;50.710;14.492;2023-03-01T16:07:28;25.08;34.04
65472;DHT22;52068;50.710;14.492;2023-03-01T16:09:53;25.43;33.44
65472;DHT22;52068;50.710;14.492;2023-03-01T16:12:18;25.72;32.94
65472;DHT22;52068;50.710;14.492;2023-03-01T16:14:46;25.86;32.70
65472;DHT22;52068;50.710;14.492;2023-03-01T16:17:13;25.87;32.60
65472;DHT22;52068;50.710;14.492;2023-03-01T16:19:38;25.82;32.58
65472;DHT22;52068;50.710;14.492;2023-03-01T16:22:04;25.75;32.74
65472;DHT22;52068;50.710;14.492;2023-03-01T16:24:29;25.63;32.90
65472;DHT22;52068;50.710;14.492;2023-03-01T16:26:55;25.47;33.01
65472;DHT22;52068;50.710;14.492;2023-03-01T16:29:20;25.32;33.30
65472;DHT22;52068;50.710;14.492;2023-03-01T16:31:45;25.16;33.44
65472;DHT22;52068;50.710;14.492;2023-03-01T16:34:11;25.01;33.68
65472;DHT22;52068;50.710;14.492;2023-03-01T16:36:36;24.88;33.83
65472;DHT22;52068;50.710;14.492;2023-03-01T16:39:02;24.73;34.03
65472;DHT22;52068;50.710;14.492;2023-03-01T16:41:28;24.60;34.10
65472;DHT22;52068;50.710;14.492;2023-03-01T16:43:53;24.46;34.35
65472;DHT22;52068;50.710;14.492;2023-03-01T16:46:20;24.29;34.58
65472;DHT22;52068;50.710;14.492;2023-03-01T16:48:46;24.20;34.74
65472;DHT22;52068;50.710;14.492;2023-03-01T16:51:11;24.32;34.52
65472;DHT22;52068;50.710;14.492;2023-03-01T16:53:37;24.60;34.20
65472;DHT22;52068;50.710;14.492;2023-03-01T16:56:03;25.04;33.59
65472;DHT22;52068;50.710;14.492;2023-03-01T16:58:29;25.42;32.88
65472;DHT22;52068;50.710;14.492;2023-03-01T17:00:54;25.70;32.37
65472;DHT22;52068;50.710;14.492;2023-03-01T17:03:21;25.84;32.00
65472;DHT22;52068;50.710;14.492;2023-03-01T17:05:46;25.86;31.94
65472;DHT22;52068;50.710;14.492;2023-03-01T17:08:12;25.80;32.08
65472;DHT22;52068;50.710;14.492;2023-03-01T17:10:37;25.69;32.08